KBPG/BPG METAR and TAF weather

Enter ICAO airport designator
Station Type Date Time Source
KBPG METAR 2018/12/11 00:55 UTC NOAA

KBPG 110055Z AUTO 15007KT 7SM CLR 06/04 A3033 RMK AO2 T00640042


Station Type Date Time Source
KBPG Decoded METAR 2018/12/11 00:55 UTC NOAA

Big Spring, Big Spring McMahon-Wrinkle Airport, TX, United States (KBPG) 32-12N 101-31W
Dec 10, 2018 - 07:55 PM EST / 2018.12.11 0055 UTC
Wind: from the SSE (150 degrees) at 8 MPH (7 KT):0
Visibility: 7 mile(s):0
Sky conditions: clear
Temperature: 43.5 F (6.4 C)
Dew Point: 39.6 F (4.2 C)
Relative Humidity: 85%
Pressure (altimeter): 30.33 in. Hg (1027 hPa)
ob: KBPG 110055Z AUTO 15007KT 7SM CLR 06/04 A3033 RMK AO2 T00640042
cycle: 1

Station Type Date Time Source
KBPG TAF UTC NOAA

Error!


Example: see airport list